sensor_id;sensor_type;location;lat;lon;timestamp;pressure;altitude;pressure_sealevel;temperature;humidity
41862;BME280;27537;57.134;-2.136;2022-07-29T00:00:00;101372.31;;;16.49;100.00
41862;BME280;27537;57.134;-2.136;2022-07-29T00:02:27;101372.16;;;16.52;100.00
41862;BME280;27537;57.134;-2.136;2022-07-29T00:04:54;101399.56;;;16.85;100.00
41862;BME280;27537;57.134;-2.136;2022-07-29T00:07:21;101330.44;;;16.42;100.00
41862;BME280;27537;57.134;-2.136;2022-07-29T00:09:48;101365.66;;;16.76;100.00
41862;BME280;27537;57.134;-2.136;2022-07-29T00:12:22;101392.69;;;16.47;100.00
41862;BME280;27537;57.134;-2.136;2022-07-29T00:14:56;101391.84;;;16.29;100.00
41862;BME280;27537;57.134;-2.136;2022-07-29T00:17:23;101396.03;;;16.33;100.00
41862;BME280;27537;57.134;-2.136;2022-07-29T00:19:50;101387.19;;;16.35;100.00
41862;BME280;27537;57.134;-2.136;2022-07-29T00:22:17;101382.75;;;16.35;100.00
41862;BME280;27537;57.134;-2.136;2022-07-29T00:24:44;101397.19;;;16.45;100.00
41862;BME280;27537;57.134;-2.136;2022-07-29T00:27:11;101401.09;;;16.38;100.00
41862;BME280;27537;57.134;-2.136;2022-07-29T00:29:37;101382.59;;;16.38;100.00
41862;BME280;27537;57.134;-2.136;2022-07-29T00:32:05;101386.63;;;16.28;100.00
41862;BME280;27537;57.134;-2.136;2022-07-29T00:34:31;101392.28;;;16.38;100.00
41862;BME280;27537;57.134;-2.136;2022-07-29T00:37:17;101379.81;;;16.06;100.00
41862;BME280;27537;57.134;-2.136;2022-07-29T00:39:44;101378.41;;;16.17;100.00
41862;BME280;27537;57.134;-2.136;2022-07-29T00:42:10;101393.72;;;16.27;100.00
41862;BME280;27537;57.134;-2.136;2022-07-29T00:44:40;101382.13;;;16.30;100.00
41862;BME280;27537;57.134;-2.136;2022-07-29T00:47:09;101369.31;;;16.22;100.00
41862;BME280;27537;57.134;-2.136;2022-07-29T00:49:38;101400.16;;;16.22;100.00
41862;BME280;27537;57.134;-2.136;2022-07-29T00:52:07;101385.53;;;16.14;100.00
41862;BME280;27537;57.134;-2.136;2022-07-29T00:54:35;101405.06;;;16.29;100.00
41862;BME280;27537;57.134;-2.136;2022-07-29T00:57:10;101387.41;;;16.30;100.00
41862;BME280;27537;57.134;-2.136;2022-07-29T00:59:37;101372.41;;;16.30;100.00
41862;BME280;27537;57.134;-2.136;2022-07-29T01:02:04;101388.88;;;16.36;100.00
41862;BME280;27537;57.134;-2.136;2022-07-29T01:04:31;101400.84;;;16.43;100.00
41862;BME280;27537;57.134;-2.136;2022-07-29T01:07:01;101407.22;;;16.39;100.00
41862;BME280;27537;57.134;-2.136;2022-07-29T01:09:28;101373.84;;;16.20;100.00
41862;BME280;27537;57.134;-2.136;2022-07-29T01:12:11;101374.13;;;16.14;100.00
41862;BME280;27537;57.134;-2.136;2022-07-29T01:14:40;101338.09;;;15.96;100.00
41862;BME280;27537;57.134;-2.136;2022-07-29T01:17:28;101370.38;;;16.18;100.00
41862;BME280;27537;57.134;-2.136;2022-07-29T01:20:18;101391.53;;;16.36;100.00
41862;BME280;27537;57.134;-2.136;2022-07-29T01:30:56;101392.31;;;16.20;100.00
41862;BME280;27537;57.134;-2.136;2022-07-29T01:33:25;101385.53;;;16.14;100.00
41862;BME280;27537;57.134;-2.136;2022-07-29T01:36:16;101408.88;;;16.24;100.00
41862;BME280;27537;57.134;-2.136;2022-07-29T01:38:47;101408.06;;;16.22;100.00
41862;BME280;27537;57.134;-2.136;2022-07-29T01:41:17;101400.94;;;16.24;100.00
41862;BME280;27537;57.134;-2.136;2022-07-29T01:43:56;101394.41;;;16.31;100.00
41862;BME280;27537;57.134;-2.136;2022-07-29T01:46:38;101394.22;;;16.34;100.00
41862;BME280;27537;57.134;-2.136;2022-07-29T01:49:11;101403.03;;;16.35;100.00
41862;BME280;27537;57.134;-2.136;2022-07-29T01:51:46;101382.53;;;16.22;100.00
41862;BME280;27537;57.134;-2.136;2022-07-29T01:54:19;101384.41;;;16.20;100.00
41862;BME280;27537;57.134;-2.136;2022-07-29T01:56:49;101396.44;;;16.26;100.00
41862;BME280;27537;57.134;-2.136;2022-07-29T01:59:18;101395.19;;;16.33;100.00
41862;BME280;27537;57.134;-2.136;2022-07-29T02:01:48;101393.72;;;16.27;100.00
41862;BME280;27537;57.134;-2.136;2022-07-29T02:04:20;101386.78;;;16.25;100.00
41862;BME280;27537;57.134;-2.136;2022-07-29T02:06:58;101386.00;;;16.23;100.00
41862;BME280;27537;57.134;-2.136;2022-07-29T02:09:28;101400.84;;;16.43;100.00
41862;BME280;27537;57.134;-2.136;2022-07-29T02:11:57;101380.09;;;16.35;100.00
41862;BME280;27537;57.134;-2.136;2022-07-29T02:14:26;101382.81;;;16.33;100.00
41862;BME280;27537;57.134;-2.136;2022-07-29T02:16:55;101395.88;;;16.37;100.00
41862;BME280;27537;57.134;-2.136;2022-07-29T02:19:26;101373.28;;;16.13;100.00
41862;BME280;27537;57.134;-2.136;2022-07-29T02:21:54;101385.09;;;16.24;100.00
41862;BME280;27537;57.134;-2.136;2022-07-29T02:24:24;101386.63;;;16.28;100.00
41862;BME280;27537;57.134;-2.136;2022-07-29T02:26:54;101393.16;;;16.38;100.00
41862;BME280;27537;57.134;-2.136;2022-07-29T02:29:23;101381.81;;;16.36;100.00
41862;BME280;27537;57.134;-2.136;2022-07-29T02:31:52;101374.19;;;16.47;100.00
41862;BME280;27537;57.134;-2.136;2022-07-29T02:34:20;101371.75;;;16.60;100.00
41862;BME280;27537;57.134;-2.136;2022-07-29T02:36:49;101373.31;;;16.64;100.00
41862;BME280;27537;57.134;-2.136;2022-07-29T02:39:17;101377.78;;;16.62;100.00
41862;BME280;27537;57.134;-2.136;2022-07-29T02:41:47;101354.28;;;16.40;100.00
41862;BME280;27537;57.134;-2.136;2022-07-29T02:44:17;101388.00;;;16.70;100.00
41862;BME280;27537;57.134;-2.136;2022-07-29T02:46:50;101366.34;;;16.28;100.00
41862;BME280;27537;57.134;-2.136;2022-07-29T02:52:26;101382.88;;;16.49;100.00
41862;BME280;27537;57.134;-2.136;2022-07-29T02:54:59;101373.97;;;16.35;100.00
41862;BME280;27537;57.134;-2.136;2022-07-29T02:57:59;101376.97;;;16.44;100.00
41862;BME280;27537;57.134;-2.136;2022-07-29T03:00:31;101370.66;;;16.64;100.00
41862;BME280;27537;57.134;-2.136;2022-07-29T03:03:04;101367.75;;;16.69;100.00
41862;BME280;27537;57.134;-2.136;2022-07-29T03:05:34;101378.03;;;16.75;100.00
41862;BME280;27537;57.134;-2.136;2022-07-29T03:08:05;101358.94;;;16.52;100.00
41862;BME280;27537;57.134;-2.136;2022-07-29T03:10:33;101343.03;;;16.37;100.00
41862;BME280;27537;57.134;-2.136;2022-07-29T03:13:01;101361.59;;;16.52;100.00
41862;BME280;27537;57.134;-2.136;2022-07-29T03:15:28;101324.19;;;16.43;100.00
41862;BME280;27537;57.134;-2.136;2022-07-29T03:17:55;101338.59;;;16.37;100.00
41862;BME280;27537;57.134;-2.136;2022-07-29T03:20:23;101379.41;;;16.31;100.00
41862;BME280;27537;57.134;-2.136;2022-07-29T03:22:50;101346.25;;;16.08;100.00
41862;BME280;27537;57.134;-2.136;2022-07-29T03:25:18;101377.94;;;16.26;100.00
41862;BME280;27537;57.134;-2.136;2022-07-29T03:27:47;101386.22;;;16.36;100.00
41862;BME280;27537;57.134;-2.136;2022-07-29T03:30:14;101383.06;;;16.29;100.00
41862;BME280;27537;57.134;-2.136;2022-07-29T03:32:48;101344.16;;;15.98;100.00
41862;BME280;27537;57.134;-2.136;2022-07-29T03:35:18;101329.28;;;15.95;100.00
41862;BME280;27537;57.134;-2.136;2022-07-29T03:37:46;101381.34;;;16.45;100.00
41862;BME280;27537;57.134;-2.136;2022-07-29T03:40:20;101384.63;;;16.33;100.00
41862;BME280;27537;57.134;-2.136;2022-07-29T03:42:49;101368.63;;;16.36;100.00
41862;BME280;27537;57.134;-2.136;2022-07-29T03:45:18;101349.94;;;16.22;100.00
41862;BME280;27537;57.134;-2.136;2022-07-29T03:47:49;101360.28;;;16.26;100.00
41862;BME280;27537;57.134;-2.136;2022-07-29T03:50:22;101335.13;;;16.02;100.00
41862;BME280;27537;57.134;-2.136;2022-07-29T03:52:49;101307.88;;;15.84;100.00
41862;BME280;27537;57.134;-2.136;2022-07-29T03:55:17;101359.03;;;16.16;100.00
41862;BME280;27537;57.134;-2.136;2022-07-29T03:57:45;101379.72;;;16.25;100.00
41862;BME280;27537;57.134;-2.136;2022-07-29T04:00:13;101323.63;;;15.85;100.00
41862;BME280;27537;57.134;-2.136;2022-07-29T04:02:43;101382.03;;;16.31;100.00
41862;BME280;27537;57.134;-2.136;2022-07-29T04:05:15;101383.22;;;16.43;100.00
41862;BME280;27537;57.134;-2.136;2022-07-29T04:07:46;101332.88;;;15.94;100.00
41862;BME280;27537;57.134;-2.136;2022-07-29T04:10:14;101311.09;;;15.71;100.00
41862;BME280;27537;57.134;-2.136;2022-07-29T04:12:57;101358.59;;;16.08;100.00
41862;BME280;27537;57.134;-2.136;2022-07-29T04:15:24;101377.06;;;16.25;100.00
41862;BME280;27537;57.134;-2.136;2022-07-29T04:17:50;101378.31;;;16.18;100.00
41862;BME280;27537;57.134;-2.136;2022-07-29T04:20:17;101357.09;;;16.02;100.00
41862;BME280;27537;57.134;-2.136;2022-07-29T04:22:44;101354.94;;;16.10;100.00
41862;BME280;27537;57.134;-2.136;2022-07-29T04:25:11;101343.19;;;16.16;100.00
41862;BME280;27537;57.134;-2.136;2022-07-29T04:27:38;101317.94;;;15.75;100.00
41862;BME280;27537;57.134;-2.136;2022-07-29T04:30:25;101374.19;;;16.12;100.00
41862;BME280;27537;57.134;-2.136;2022-07-29T04:32:51;101349.81;;;16.07;100.00
41862;BME280;27537;57.134;-2.136;2022-07-29T04:35:19;101357.97;;;16.03;100.00
41862;BME280;27537;57.134;-2.136;2022-07-29T04:37:46;101358.97;;;16.00;100.00
41862;BME280;27537;57.134;-2.136;2022-07-29T04:40:13;101343.38;;;15.96;100.00
41862;BME280;27537;57.134;-2.136;2022-07-29T04:42:40;101354.31;;;16.05;100.00
41862;BME280;27537;57.134;-2.136;2022-07-29T04:45:11;101365.09;;;16.18;100.00
41862;BME280;27537;57.134;-2.136;2022-07-29T04:47:39;101354.25;;;16.07;100.00
41862;BME280;27537;57.134;-2.136;2022-07-29T04:50:08;101355.72;;;16.12;100.00
41862;BME280;27537;57.134;-2.136;2022-07-29T04:52:35;101361.13;;;16.09;100.00
41862;BME280;27537;57.134;-2.136;2022-07-29T04:55:04;101371.88;;;16.06;100.00
41862;BME280;27537;57.134;-2.136;2022-07-29T04:57:31;101361.44;;;15.86;100.00
41862;BME280;27537;57.134;-2.136;2022-07-29T04:59:57;101367.53;;;16.05;100.00
41862;BME280;27537;57.134;-2.136;2022-07-29T05:02:24;101362.78;;;16.12;100.00
41862;BME280;27537;57.134;-2.136;2022-07-29T05:04:51;101353.06;;;16.12;100.00
41862;BME280;27537;57.134;-2.136;2022-07-29T05:07:17;101368.19;;;16.44;100.00
41862;BME280;27537;57.134;-2.136;2022-07-29T05:09:44;101351.94;;;16.34;100.00
41862;BME280;27537;57.134;-2.136;2022-07-29T05:12:11;101345.06;;;16.14;100.00
41862;BME280;27537;57.134;-2.136;2022-07-29T05:14:38;101357.00;;;16.39;100.00
41862;BME280;27537;57.134;-2.136;2022-07-29T05:17:05;101362.31;;;16.21;100.00
41862;BME280;27537;57.134;-2.136;2022-07-29T05:19:32;101311.81;;;16.10;100.00
41862;BME280;27537;57.134;-2.136;2022-07-29T05:22:04;101353.97;;;16.46;100.00
41862;BME280;27537;57.134;-2.136;2022-07-29T05:24:32;101356.22;;;16.54;100.00
41862;BME280;27537;57.134;-2.136;2022-07-29T05:26:59;101370.16;;;16.40;100.00
41862;BME280;27537;57.134;-2.136;2022-07-29T05:29:26;101373.25;;;16.48;100.00
41862;BME280;27537;57.134;-2.136;2022-07-29T05:32:11;101383.78;;;16.32;100.00
41862;BME280;27537;57.134;-2.136;2022-07-29T05:34:39;101382.03;;;16.49;100.00
41862;BME280;27537;57.134;-2.136;2022-07-29T05:37:16;101384.53;;;16.52;100.00
41862;BME280;27537;57.134;-2.136;2022-07-29T05:39:44;101372.03;;;16.72;100.00
41862;BME280;27537;57.134;-2.136;2022-07-29T05:42:16;101356.72;;;16.61;100.00
41862;BME280;27537;57.134;-2.136;2022-07-29T05:44:43;101383.88;;;16.64;100.00
41862;BME280;27537;57.134;-2.136;2022-07-29T05:47:09;101376.22;;;16.76;100.00
41862;BME280;27537;57.134;-2.136;2022-07-29T05:49:36;101345.66;;;16.54;100.00
41862;BME280;27537;57.134;-2.136;2022-07-29T05:52:03;101371.41;;;16.84;100.00
41862;BME280;27537;57.134;-2.136;2022-07-29T05:54:31;101373.22;;;16.82;100.00
41862;BME280;27537;57.134;-2.136;2022-07-29T05:56:57;101353.44;;;16.73;100.00
41862;BME280;27537;57.134;-2.136;2022-07-29T05:59:24;101356.41;;;16.84;100.00
41862;BME280;27537;57.134;-2.136;2022-07-29T06:01:56;101332.97;;;16.77;100.00
41862;BME280;27537;57.134;-2.136;2022-07-29T06:04:24;101374.06;;;16.84;100.00
41862;BME280;27537;57.134;-2.136;2022-07-29T06:06:53;101364.34;;;16.67;100.00
41862;BME280;27537;57.134;-2.136;2022-07-29T06:09:20;101374.69;;;16.72;100.00
41862;BME280;27537;57.134;-2.136;2022-07-29T06:11:47;101344.19;;;16.48;100.00
41862;BME280;27537;57.134;-2.136;2022-07-29T06:14:14;101324.66;;;16.51;100.00
41862;BME280;27537;57.134;-2.136;2022-07-29T06:16:41;101343.03;;;16.70;100.00
41862;BME280;27537;57.134;-2.136;2022-07-29T06:19:09;101332.88;;;16.45;100.00
41862;BME280;27537;57.134;-2.136;2022-07-29T06:21:36;101342.69;;;16.43;100.00
41862;BME280;27537;57.134;-2.136;2022-07-29T06:24:07;101356.75;;;16.77;100.00
41862;BME280;27537;57.134;-2.136;2022-07-29T06:26:40;101363.31;;;16.69;100.00
41862;BME280;27537;57.134;-2.136;2022-07-29T06:29:07;101380.16;;;16.51;100.00
41862;BME280;27537;57.134;-2.136;2022-07-29T06:31:35;101339.22;;;16.42;100.00
41862;BME280;27537;57.134;-2.136;2022-07-29T06:34:02;101350.31;;;16.49;100.00
41862;BME280;27537;57.134;-2.136;2022-07-29T06:36:30;101344.53;;;16.58;100.00
41862;BME280;27537;57.134;-2.136;2022-07-29T06:38:57;101330.81;;;16.34;100.00
41862;BME280;27537;57.134;-2.136;2022-07-29T06:41:24;101327.66;;;16.27;100.00
41862;BME280;27537;57.134;-2.136;2022-07-29T06:43:52;101317.38;;;16.39;100.00
41862;BME280;27537;57.134;-2.136;2022-07-29T06:46:21;101365.66;;;16.76;100.00
41862;BME280;27537;57.134;-2.136;2022-07-29T06:48:49;101370.97;;;16.58;100.00
41862;BME280;27537;57.134;-2.136;2022-07-29T06:51:16;101334.41;;;16.66;100.00
41862;BME280;27537;57.134;-2.136;2022-07-29T06:53:50;101360.78;;;16.68;100.00
41862;BME280;27537;57.134;-2.136;2022-07-29T06:56:32;101350.88;;;16.38;100.00
41862;BME280;27537;57.134;-2.136;2022-07-29T06:59:05;101333.38;;;16.36;100.00
41862;BME280;27537;57.134;-2.136;2022-07-29T07:01:32;101341.38;;;16.34;100.00
41862;BME280;27537;57.134;-2.136;2022-07-29T07:03:59;101336.00;;;16.53;100.00
41862;BME280;27537;57.134;-2.136;2022-07-29T07:06:26;101380.19;;;16.84;100.00
41862;BME280;27537;57.134;-2.136;2022-07-29T07:08:54;101316.06;;;16.63;100.00
41862;BME280;27537;57.134;-2.136;2022-07-29T07:11:21;101344.78;;;16.54;100.00
41862;BME280;27537;57.134;-2.136;2022-07-29T07:13:48;101377.91;;;17.10;100.00
41862;BME280;27537;57.134;-2.136;2022-07-29T07:16:15;101343.53;;;16.77;100.00
41862;BME280;27537;57.134;-2.136;2022-07-29T07:18:42;101385.00;;;17.10;100.00
41862;BME280;27537;57.134;-2.136;2022-07-29T07:21:11;101320.13;;;16.20;100.00
41862;BME280;27537;57.134;-2.136;2022-07-29T07:23:45;101358.41;;;16.28;100.00
41862;BME280;27537;57.134;-2.136;2022-07-29T07:26:12;101362.75;;;16.47;100.00
41862;BME280;27537;57.134;-2.136;2022-07-29T07:28:39;101343.03;;;16.70;100.00
41862;BME280;27537;57.134;-2.136;2022-07-29T07:31:06;101325.44;;;16.69;100.00
41862;BME280;27537;57.134;-2.136;2022-07-29T07:33:33;101352.84;;;16.68;100.00
41862;BME280;27537;57.134;-2.136;2022-07-29T07:35:59;101362.91;;;16.95;100.00
41862;BME280;27537;57.134;-2.136;2022-07-29T07:38:26;101360.56;;;16.88;100.00
41862;BME280;27537;57.134;-2.136;2022-07-29T07:40:53;101355.06;;;17.09;100.00
41862;BME280;27537;57.134;-2.136;2022-07-29T07:43:20;101379.41;;;17.16;100.00
41862;BME280;27537;57.134;-2.136;2022-07-29T07:45:48;101338.06;;;16.97;100.00
41862;BME280;27537;57.134;-2.136;2022-07-29T07:48:15;101384.94;;;17.27;100.00
41862;BME280;27537;57.134;-2.136;2022-07-29T07:50:42;101353.63;;;17.35;100.00
41862;BME280;27537;57.134;-2.136;2022-07-29T07:53:10;101374.56;;;17.70;100.00
41862;BME280;27537;57.134;-2.136;2022-07-29T07:55:41;101372.75;;;18.02;100.00
41862;BME280;27537;57.134;-2.136;2022-07-29T07:58:28;101347.34;;;17.98;100.00
41862;BME280;27537;57.134;-2.136;2022-07-29T08:00:55;101347.13;;;17.41;100.00
41862;BME280;27537;57.134;-2.136;2022-07-29T08:03:22;101353.38;;;17.86;100.00
41862;BME280;27537;57.134;-2.136;2022-07-29T08:05:49;101371.91;;;18.16;100.00
41862;BME280;27537;57.134;-2.136;2022-07-29T08:08:20;101396.38;;;18.36;100.00
41862;BME280;27537;57.134;-2.136;2022-07-29T08:10:47;101324.78;;;18.36;100.00
41862;BME280;27537;57.134;-2.136;2022-07-29T08:13:21;101383.16;;;19.49;100.00
41862;BME280;27537;57.134;-2.136;2022-07-29T08:15:48;101331.91;;;20.15;100.00
41862;BME280;27537;57.134;-2.136;2022-07-29T08:18:25;101340.75;;;20.41;100.00
41862;BME280;27537;57.134;-2.136;2022-07-29T08:20:52;101349.06;;;20.36;100.00
41862;BME280;27537;57.134;-2.136;2022-07-29T08:23:19;101345.09;;;20.80;100.00
41862;BME280;27537;57.134;-2.136;2022-07-29T08:25:46;101311.22;;;21.19;100.00
41862;BME280;27537;57.134;-2.136;2022-07-29T08:28:16;101336.06;;;21.44;100.00
41862;BME280;27537;57.134;-2.136;2022-07-29T08:30:43;101347.59;;;21.69;100.00
41862;BME280;27537;57.134;-2.136;2022-07-29T08:33:10;101337.81;;;21.69;100.00
41862;BME280;27537;57.134;-2.136;2022-07-29T08:35:38;101322.03;;;20.68;100.00
41862;BME280;27537;57.134;-2.136;2022-07-29T08:38:05;101302.47;;;20.43;100.00
41862;BME280;27537;57.134;-2.136;2022-07-29T08:40:32;101332.41;;;20.97;100.00
41862;BME280;27537;57.134;-2.136;2022-07-29T08:43:07;101364.38;;;20.84;100.00
41862;BME280;27537;57.134;-2.136;2022-07-29T08:45:45;101330.63;;;21.21;100.00
41862;BME280;27537;57.134;-2.136;2022-07-29T08:48:21;101316.56;;;21.19;100.00
41862;BME280;27537;57.134;-2.136;2022-07-29T08:50:52;101345.50;;;21.61;100.00
41862;BME280;27537;57.134;-2.136;2022-07-29T08:53:23;101360.09;;;21.31;100.00
41862;BME280;27537;57.134;-2.136;2022-07-29T08:55:55;101352.69;;;21.96;100.00
41862;BME280;27537;57.134;-2.136;2022-07-29T08:58:23;101327.66;;;21.74;100.00
41862;BME280;27537;57.134;-2.136;2022-07-29T09:00:53;101358.66;;;21.51;100.00
41862;BME280;27537;57.134;-2.136;2022-07-29T09:03:30;101357.00;;;21.00;100.00
41862;BME280;27537;57.134;-2.136;2022-07-29T09:06:01;101357.72;;;21.39;100.00
41862;BME280;27537;57.134;-2.136;2022-07-29T09:08:28;101362.16;;;21.76;100.00
41862;BME280;27537;57.134;-2.136;2022-07-29T09:11:03;101352.50;;;21.38;100.00
41862;BME280;27537;57.134;-2.136;2022-07-29T09:13:30;101326.75;;;21.01;100.00
41862;BME280;27537;57.134;-2.136;2022-07-29T09:16:02;101339.16;;;21.51;100.00
41862;BME280;27537;57.134;-2.136;2022-07-29T09:21:02;101330.84;;;21.91;100.00
41862;BME280;27537;57.134;-2.136;2022-07-29T09:24:12;101345.47;;;22.21;100.00
41862;BME280;27537;57.134;-2.136;2022-07-29T09:26:46;101312.69;;;22.18;100.00
41862;BME280;27537;57.134;-2.136;2022-07-29T09:29:13;101338.38;;;22.44;100.00
41862;BME280;27537;57.134;-2.136;2022-07-29T09:31:43;101309.47;;;21.79;100.00
41862;BME280;27537;57.134;-2.136;2022-07-29T09:34:11;101341.50;;;21.91;100.00
41862;BME280;27537;57.134;-2.136;2022-07-29T09:36:46;101344.66;;;21.60;100.00
41862;BME280;27537;57.134;-2.136;2022-07-29T09:39:14;101334.94;;;21.84;100.00
41862;BME280;27537;57.134;-2.136;2022-07-29T09:41:54;101334.38;;;21.67;100.00
41862;BME280;27537;57.134;-2.136;2022-07-29T09:44:22;101340.09;;;21.26;100.00
41862;BME280;27537;57.134;-2.136;2022-07-29T09:47:03;101305.91;;;21.19;100.00
41862;BME280;27537;57.134;-2.136;2022-07-29T09:49:34;101320.09;;;21.44;100.00
41862;BME280;27537;57.134;-2.136;2022-07-29T09:52:08;101346.25;;;20.89;100.00
41862;BME280;27537;57.134;-2.136;2022-07-29T09:54:36;101286.50;;;20.30;100.00
41862;BME280;27537;57.134;-2.136;2022-07-29T09:57:22;101294.50;;;20.43;100.00
41862;BME280;27537;57.134;-2.136;2022-07-29T10:02:37;101331.41;;;21.35;100.00
41862;BME280;27537;57.134;-2.136;2022-07-29T10:05:15;101330.91;;;21.30;100.00
41862;BME280;27537;57.134;-2.136;2022-07-29T10:07:50;101331.91;;;21.53;100.00
41862;BME280;27537;57.134;-2.136;2022-07-29T10:10:28;101313.13;;;21.78;100.00
41862;BME280;27537;57.134;-2.136;2022-07-29T10:13:04;101290.91;;;21.67;100.00
41862;BME280;27537;57.134;-2.136;2022-07-29T10:15:39;101280.03;;;21.81;100.00
41862;BME280;27537;57.134;-2.136;2022-07-29T10:18:08;101323.78;;;22.59;100.00
41862;BME280;27537;57.134;-2.136;2022-07-29T10:20:37;101334.88;;;22.08;100.00
41862;BME280;27537;57.134;-2.136;2022-07-29T10:23:04;101304.69;;;21.36;100.00
41862;BME280;27537;57.134;-2.136;2022-07-29T10:25:31;101290.53;;;21.36;100.00
41862;BME280;27537;57.134;-2.136;2022-07-29T10:27:58;101300.31;;;21.35;100.00
41862;BME280;27537;57.134;-2.136;2022-07-29T10:30:28;101319.22;;;21.19;100.00
41862;BME280;27537;57.134;-2.136;2022-07-29T10:38:48;101287.97;;;21.34;100.00
41862;BME280;27537;57.134;-2.136;2022-07-29T10:46:48;101315.19;;;22.44;100.00
41862;BME280;27537;57.134;-2.136;2022-07-29T10:49:17;101297.19;;;22.01;100.00
41862;BME280;27537;57.134;-2.136;2022-07-29T10:52:07;101326.44;;;21.78;100.00
41862;BME280;27537;57.134;-2.136;2022-07-29T11:00:35;101319.25;;;21.68;100.00
41862;BME280;27537;57.134;-2.136;2022-07-29T11:02:41;101345.22;;;21.53;100.00
41862;BME280;27537;57.134;-2.136;2022-07-29T11:05:18;101347.03;;;21.76;100.00
41862;BME280;27537;57.134;-2.136;2022-07-29T11:10:46;101323.91;;;21.29;100.00
41862;BME280;27537;57.134;-2.136;2022-07-29T11:16:09;101336.56;;;21.97;100.00
41862;BME280;27537;57.134;-2.136;2022-07-29T11:21:41;101314.31;;;21.26;100.00
41862;BME280;27537;57.134;-2.136;2022-07-29T11:24:31;101331.81;;;21.17;100.00
41862;BME280;27537;57.134;-2.136;2022-07-29T11:29:49;101327.84;;;22.07;100.00
41862;BME280;27537;57.134;-2.136;2022-07-29T11:32:17;101315.16;;;21.75;100.00
41862;BME280;27537;57.134;-2.136;2022-07-29T11:35:10;101325.16;;;22.42;100.00
41862;BME280;27537;57.134;-2.136;2022-07-29T11:37:45;101292.06;;;21.51;100.00
41862;BME280;27537;57.134;-2.136;2022-07-29T11:40:23;101299.34;;;21.12;100.00
41862;BME280;27537;57.134;-2.136;2022-07-29T11:42:50;101302.00;;;21.36;100.00
41862;BME280;27537;57.134;-2.136;2022-07-29T11:45:18;101273.13;;;20.95;100.00
41862;BME280;27537;57.134;-2.136;2022-07-29T11:48:05;101320.09;;;21.44;100.00
41862;BME280;27537;57.134;-2.136;2022-07-29T11:50:53;101294.19;;;21.70;100.00
41862;BME280;27537;57.134;-2.136;2022-07-29T11:53:23;101305.13;;;21.06;100.00
41862;BME280;27537;57.134;-2.136;2022-07-29T11:55:54;101318.50;;;21.41;100.00
41862;BME280;27537;57.134;-2.136;2022-07-29T11:58:24;101306.78;;;21.68;100.00
41862;BME280;27537;57.134;-2.136;2022-07-29T12:00:52;101332.91;;;21.98;100.00
41862;BME280;27537;57.134;-2.136;2022-07-29T12:03:28;101279.50;;;21.53;100.00
41862;BME280;27537;57.134;-2.136;2022-07-29T12:06:14;101296.13;;;21.68;100.00
41862;BME280;27537;57.134;-2.136;2022-07-29T12:08:46;101290.44;;;21.24;100.00
41862;BME280;27537;57.134;-2.136;2022-07-29T12:11:19;101305.94;;;21.68;100.00
41862;BME280;27537;57.134;-2.136;2022-07-29T12:13:50;101323.59;;;21.20;100.00
41862;BME280;27537;57.134;-2.136;2022-07-29T12:16:21;101306.13;;;21.53;100.00
41862;BME280;27537;57.134;-2.136;2022-07-29T12:18:56;101320.28;;;21.78;100.00
41862;BME280;27537;57.134;-2.136;2022-07-29T12:21:28;101331.88;;;21.77;100.00
41862;BME280;27537;57.134;-2.136;2022-07-29T12:23:57;101330.22;;;21.52;100.00
41862;BME280;27537;57.134;-2.136;2022-07-29T12:26:35;101294.63;;;20.92;100.00
41862;BME280;27537;57.134;-2.136;2022-07-29T12:29:02;101296.25;;;20.81;100.00
41862;BME280;27537;57.134;-2.136;2022-07-29T12:31:29;101272.72;;;21.12;100.00
41862;BME280;27537;57.134;-2.136;2022-07-29T12:34:15;101294.25;;;21.09;100.00
41862;BME280;27537;57.134;-2.136;2022-07-29T12:36:42;101250.41;;;21.02;100.00
41862;BME280;27537;57.134;-2.136;2022-07-29T12:39:10;101320.88;;;21.09;100.00
41862;BME280;27537;57.134;-2.136;2022-07-29T12:41:38;101285.63;;;21.30;100.00
41862;BME280;27537;57.134;-2.136;2022-07-29T12:44:05;101318.31;;;21.32;100.00
41862;BME280;27537;57.134;-2.136;2022-07-29T12:46:32;101281.09;;;21.19;100.00
41862;BME280;27537;57.134;-2.136;2022-07-29T12:48:59;101320.13;;;22.26;100.00
41862;BME280;27537;57.134;-2.136;2022-07-29T12:54:10;101313.88;;;21.32;100.00
41862;BME280;27537;57.134;-2.136;2022-07-29T12:56:39;101280.19;;;21.91;100.00
41862;BME280;27537;57.134;-2.136;2022-07-29T12:59:21;101294.63;;;20.92;100.00
41862;BME280;27537;57.134;-2.136;2022-07-29T13:01:50;101255.66;;;20.91;100.00
41862;BME280;27537;57.134;-2.136;2022-07-29T13:04:26;101301.00;;;21.74;100.00
41862;BME280;27537;57.134;-2.136;2022-07-29T13:07:04;101261.78;;;21.28;100.00
41862;BME280;27537;57.134;-2.136;2022-07-29T13:09:44;101289.28;;;21.29;100.00
41862;BME280;27537;57.134;-2.136;2022-07-29T13:12:13;101266.16;;;21.29;100.00
41862;BME280;27537;57.134;-2.136;2022-07-29T13:14:45;101252.19;;;21.14;100.00
41862;BME280;27537;57.134;-2.136;2022-07-29T13:17:16;101285.09;;;20.76;100.00
41862;BME280;27537;57.134;-2.136;2022-07-29T13:19:45;101283.72;;;20.45;100.00
41862;BME280;27537;57.134;-2.136;2022-07-29T13:22:14;101268.41;;;20.48;100.00
41862;BME280;27537;57.134;-2.136;2022-07-29T13:24:52;101246.47;;;20.58;100.00
41862;BME280;27537;57.134;-2.136;2022-07-29T13:27:21;101278.63;;;20.67;100.00
41862;BME280;27537;57.134;-2.136;2022-07-29T13:29:48;101237.84;;;21.04;100.00
41862;BME280;27537;57.134;-2.136;2022-07-29T13:32:21;101258.81;;;20.72;100.00
41862;BME280;27537;57.134;-2.136;2022-07-29T13:34:59;101252.09;;;21.03;100.00